Time;durP1;ratioP1;P1;durP2;ratioP2;P2;SDS_P1;SDS_P2;PMS_P1;PMS_P2;Temp;Humidity;BMP_temperature;BMP_pressure;BME280_temperature;BME280_humidity;BME280_pressure;Samples;Min_cycle;Max_cycle;Signal;HPM_P1;HPM_P2
2022/11/21 00:07:31;;;;;;;55.7;98.3;;;;;;;-0.6;87.2;98030;;;;
2022/11/21 00:17:31;;;;;;;55.7;98.3;;;;;;;-0.8;87;98030;;;;
2022/11/21 00:27:31;;;;;;;50.2;86.3;;;;;;;-1.2;86.6;98020;;;;
2022/11/21 00:38:31;;;;;;;50.2;86.3;;;;;;;-1.4;86.7;98020;;;;
2022/11/21 00:48:31;;;;;;;50.2;86.3;;;;;;;-1.7;86.8;98010;;;;
2022/11/21 00:58:31;;;;;;;54.8;92;;;;;;;-1.9;87;98010;;;;
2022/11/21 01:09:31;;;;;;;54.8;92;;;;;;;-1.8;87.9;98010;;;;
2022/11/21 01:20:31;;;;;;;52;96.2;;;;;;;-1.5;88.3;97990;;;;
2022/11/21 01:31:31;;;;;;;52;96.2;;;;;;;-1.5;88.4;97980;;;;
2022/11/21 01:42:31;;;;;;;52;96.2;;;;;;;-1.7;87.9;97980;;;;
2022/11/21 01:52:31;;;;;;;46.2;84.9;;;;;;;-1.8;87.7;98000;;;;
2022/11/21 02:02:31;;;;;;;46.2;84.9;;;;;;;-1.8;87.7;98000;;;;
2022/11/21 02:13:31;;;;;;;46.2;84.9;;;;;;;-2;87.7;97990;;;;
2022/11/21 02:23:31;;;;;;;28.7;53.7;;;;;;;-2.2;87.6;97990;;;;
2022/11/21 02:33:31;;;;;;;28.7;53.7;;;;;;;-2.4;87.5;97990;;;;
2022/11/21 02:44:31;;;;;;;28.7;53.7;;;;;;;-2.5;87.8;97980;;;;
2022/11/21 02:54:31;;;;;;;22.6;39.2;;;;;;;-2.6;87.8;97970;;;;
2022/11/21 03:05:31;;;;;;;22.6;39.2;;;;;;;-2.8;87.8;97970;;;;
2022/11/21 03:15:31;;;;;;;22.6;39.2;;;;;;;-2.8;88.1;97950;;;;
2022/11/21 03:25:31;;;;;;;19;30.7;;;;;;;-2.8;88.5;97940;;;;
2022/11/21 03:36:31;;;;;;;19;30.7;;;;;;;-2.8;88.8;97930;;;;
2022/11/21 03:47:31;;;;;;;19;30.7;;;;;;;-3.1;88.4;97930;;;;
2022/11/21 03:57:31;;;;;;;19.6;35.2;;;;;;;-3.2;88.1;97940;;;;
2022/11/21 04:08:31;;;;;;;19.6;35.2;;;;;;;-3.3;87.9;97950;;;;
2022/11/21 04:19:31;;;;;;;18.1;29.5;;;;;;;-3.3;88.2;97940;;;;
2022/11/21 04:29:31;;;;;;;18.1;29.5;;;;;;;-3.3;88.2;97930;;;;
2022/11/21 04:39:31;;;;;;;18.1;29.5;;;;;;;-3.3;88.2;97930;;;;
2022/11/21 04:49:31;;;;;;;20;32.6;;;;;;;-3.5;87.9;97920;;;;
2022/11/21 05:00:31;;;;;;;20;32.6;;;;;;;-3.5;87.9;97910;;;;
2022/11/21 05:21:31;;;;;;;18.1;33.6;;;;;;;-3.4;89;97890;;;;
2022/11/21 05:32:31;;;;;;;18.1;33.6;;;;;;;-3.1;90.1;97880;;;;
2022/11/21 05:43:47;;;;;;;18.1;33.6;;;;;;;-3.3;89.6;97870;;;;
2022/11/21 05:54:31;;;;;;;19.9;38.2;;;;;;;-3.5;88.2;97850;;;;
2022/11/21 06:04:31;;;;;;;19.9;38.2;;;;;;;-3.6;88.3;97840;;;;
2022/11/21 06:14:31;;;;;;;19.9;38.2;;;;;;;-3.7;88;97840;;;;
2022/11/21 06:25:31;;;;;;;29.4;52.9;;;;;;;-3.7;87.8;97840;;;;
2022/11/21 06:36:31;;;;;;;29.4;52.9;;;;;;;-3.8;87.5;97840;;;;
2022/11/21 06:46:31;;;;;;;29.4;52.9;;;;;;;-3.8;87.5;97840;;;;
2022/11/21 06:56:32;;;;;;;28.9;46.8;;;;;;;-3.6;87.7;97840;;;;
2022/11/21 07:07:31;;;;;;;28.9;46.8;;;;;;;-3.4;87.8;97830;;;;
2022/11/21 07:17:31;;;;;;;29.1;54.5;;;;;;;-3.3;87.7;97830;;;;
2022/11/21 07:28:31;;;;;;;29.1;54.5;;;;;;;-3.1;88.1;97830;;;;
2022/11/21 07:39:31;;;;;;;29.1;54.5;;;;;;;-2.6;88.5;97830;;;;
2022/11/21 07:49:32;;;;;;;29.9;54.9;;;;;;;-2;88.8;97820;;;;
2022/11/21 07:59:31;;;;;;;29.9;54.9;;;;;;;-1.2;89.4;97800;;;;
2022/11/21 08:09:31;;;;;;;29.9;54.9;;;;;;;-0.4;89.7;97790;;;;
2022/11/21 08:20:31;;;;;;;33.5;52.6;;;;;;;0.6;89.5;97790;;;;
2022/11/21 08:31:31;;;;;;;33.5;52.6;;;;;;;1.4;89;97770;;;;
2022/11/21 08:42:31;;;;;;;33.5;52.6;;;;;;;1.8;87.2;97780;;;;
2022/11/21 08:53:31;;;;;;;41.3;62.2;;;;;;;2.2;86.3;97770;;;;
2022/11/21 09:03:31;;;;;;;41.3;62.2;;;;;;;2.8;85.8;97770;;;;
2022/11/21 09:25:31;;;;;;;47.5;65.3;;;;;;;3.4;84.4;97770;;;;
2022/11/21 09:35:32;;;;;;;47.5;65.3;;;;;;;3.9;84.8;97770;;;;
2022/11/21 09:46:32;;;;;;;47.5;65.3;;;;;;;4.1;84.4;97770;;;;
2022/11/21 09:57:32;;;;;;;49.5;66.2;;;;;;;4.2;84.6;97750;;;;
2022/11/21 10:07:31;;;;;;;49.5;66.2;;;;;;;4.4;84;97750;;;;
2022/11/21 10:17:32;;;;;;;82.2;108;;;;;;;4.9;84.2;97740;;;;
2022/11/21 10:28:31;;;;;;;82.2;108;;;;;;;5.1;82.3;97750;;;;
2022/11/21 10:38:31;;;;;;;82.2;108;;;;;;;5.5;81.1;97740;;;;
2022/11/21 10:49:31;;;;;;;63.4;75.4;;;;;;;6;80.1;97720;;;;
2022/11/21 10:59:31;;;;;;;63.4;75.4;;;;;;;6;79.1;97720;;;;
2022/11/21 11:10:32;;;;;;;63.4;75.4;;;;;;;6.3;80.1;97710;;;;
2022/11/21 11:21:31;;;;;;;60.4;71.1;;;;;;;6.3;79.2;97700;;;;
2022/11/21 11:31:32;;;;;;;60.4;71.1;;;;;;;6.5;79.4;97690;;;;
2022/11/21 11:47:29;;;;;;;60.4;71.1;;;;;;;6.7;79.3;97680;;;;
2022/11/21 11:52:31;;;;;;;59.6;70.8;;;;;;;6.8;79;97680;;;;
2022/11/21 12:02:31;;;;;;;59.6;70.8;;;;;;;7.1;78.2;97670;;;;
2022/11/21 12:12:31;;;;;;;59.6;70.8;;;;;;;7.2;77.6;97670;;;;
2022/11/21 12:23:32;;;;;;;55.7;66.3;;;;;;;7.2;77.2;97670;;;;
2022/11/21 12:34:32;;;;;;;55.7;66.3;;;;;;;7;77.4;97670;;;;
2022/11/21 12:44:32;;;;;;;55.7;66.3;;;;;;;6.9;77.4;97670;;;;
2022/11/21 12:54:32;;;;;;;56.3;67;;;;;;;6.8;78.1;97660;;;;
2022/11/21 13:04:32;;;;;;;56.3;67;;;;;;;6.6;79.4;97660;;;;
2022/11/21 13:14:32;;;;;;;56.3;67;;;;;;;6.8;79.7;97650;;;;
2022/11/21 13:25:32;;;;;;;40.9;49.5;;;;;;;6.6;79.5;97650;;;;
2022/11/21 13:35:32;;;;;;;40.9;49.5;;;;;;;6.7;79.4;97650;;;;
2022/11/21 13:46:32;;;;;;;9.7;14.5;;;;;;;6.7;78.8;97650;;;;
2022/11/21 13:57:32;;;;;;;9.7;14.5;;;;;;;6.4;78.3;97640;;;;
2022/11/21 14:07:32;;;;;;;9.7;14.5;;;;;;;6.1;78;97640;;;;
2022/11/21 14:17:32;;;;;;;6.7;10.2;;;;;;;5.6;78.1;97640;;;;
2022/11/21 14:28:31;;;;;;;6.7;10.2;;;;;;;5.2;78.7;97630;;;;
2022/11/21 14:38:32;;;;;;;6.7;10.2;;;;;;;4.9;79.9;97640;;;;
2022/11/21 14:48:32;;;;;;;7.4;12.1;;;;;;;4.6;80.8;97650;;;;
2022/11/21 14:58:32;;;;;;;7.4;12.1;;;;;;;4.6;81;97650;;;;
2022/11/21 15:08:32;;;;;;;7.4;12.1;;;;;;;4.5;81.2;97650;;;;
2022/11/21 15:19:32;;;;;;;6.4;9.2;;;;;;;4.6;81.2;97660;;;;
2022/11/21 15:29:32;;;;;;;6.4;9.2;;;;;;;4.6;81.3;97660;;;;
2022/11/21 15:39:32;;;;;;;6.4;9.2;;;;;;;4.7;81.4;97660;;;;
2022/11/21 15:50:33;;;;;;;27.1;38.6;;;;;;;4.7;81.4;97660;;;;
2022/11/21 16:00:32;;;;;;;27.1;38.6;;;;;;;4.6;81.4;97650;;;;
2022/11/21 16:11:32;;;;;;;27.1;38.6;;;;;;;4.4;81.7;97650;;;;
2022/11/21 16:21:32;;;;;;;163.3;217;;;;;;;4.3;82.2;97650;;;;
2022/11/21 16:32:32;;;;;;;163.3;217;;;;;;;4.4;82.9;97650;;;;
2022/11/21 16:43:32;;;;;;;163.3;217;;;;;;;4.6;82.7;97650;;;;
2022/11/21 16:53:32;;;;;;;13;20;;;;;;;4.7;82.5;97660;;;;
2022/11/21 17:03:32;;;;;;;13;20;;;;;;;4.7;82.2;97660;;;;
2022/11/21 17:13:32;;;;;;;13;20;;;;;;;4.9;82;97670;;;;
2022/11/21 17:24:32;;;;;;;15.6;22.2;;;;;;;4.9;81.9;97670;;;;
2022/11/21 17:35:32;;;;;;;15.6;22.2;;;;;;;5;81.6;97680;;;;
2022/11/21 17:45:32;;;;;;;15.6;22.2;;;;;;;5;81.5;97680;;;;
2022/11/21 17:56:32;;;;;;;11;13.7;;;;;;;4.7;81.2;97680;;;;
2022/11/21 18:06:32;;;;;;;11;13.7;;;;;;;4.4;81.1;97680;;;;
2022/11/21 18:16:32;;;;;;;19;25.6;;;;;;;4.2;81.5;97680;;;;
2022/11/21 18:27:32;;;;;;;19;25.6;;;;;;;4.1;82.1;97680;;;;
2022/11/21 18:37:32;;;;;;;19;25.6;;;;;;;4.2;82.7;97680;;;;
2022/11/21 18:48:32;;;;;;;23;32.7;;;;;;;4.3;82.9;97690;;;;
2022/11/21 18:58:32;;;;;;;23;32.7;;;;;;;4.2;83;97690;;;;
2022/11/21 19:08:32;;;;;;;23;32.7;;;;;;;4.2;83.7;97690;;;;
2022/11/21 19:19:32;;;;;;;14.4;23.1;;;;;;;4.5;83.3;97700;;;;
2022/11/21 19:29:32;;;;;;;14.4;23.1;;;;;;;4.6;83.3;97710;;;;
2022/11/21 19:41:12;;;;;;;14.4;23.1;;;;;;;4.7;83.7;97720;;;;
2022/11/21 19:51:32;;;;;;;14.4;21.1;;;;;;;4.8;84.1;97720;;;;
2022/11/21 20:01:32;;;;;;;14.4;21.1;;;;;;;4.8;84.5;97720;;;;
2022/11/21 20:12:33;;;;;;;14.4;21.1;;;;;;;4.7;85;97730;;;;
2022/11/21 20:23:32;;;;;;;15.8;20;;;;;;;4.7;85.9;97750;;;;
2022/11/21 20:34:33;;;;;;;15.8;20;;;;;;;4.7;86;97750;;;;
2022/11/21 20:45:32;;;;;;;44.2;67.5;;;;;;;4.7;86.1;97750;;;;
2022/11/21 20:56:33;;;;;;;44.2;67.5;;;;;;;4.8;85.9;97750;;;;
2022/11/21 21:06:32;;;;;;;44.2;67.5;;;;;;;4.8;85.7;97750;;;;
2022/11/21 21:16:33;;;;;;;23.3;33.7;;;;;;;4.9;85.6;97750;;;;
2022/11/21 21:26:32;;;;;;;23.3;33.7;;;;;;;4.8;85.8;97750;;;;
2022/11/21 21:36:32;;;;;;;23.3;33.7;;;;;;;4.7;85.7;97760;;;;
2022/11/21 21:47:32;;;;;;;21.5;25.6;;;;;;;4.7;85.4;97750;;;;
2022/11/21 21:57:32;;;;;;;21.5;25.6;;;;;;;4.7;85.4;97750;;;;
2022/11/21 22:08:32;;;;;;;21.5;25.6;;;;;;;4.6;85.1;97750;;;;
2022/11/21 22:19:32;;;;;;;18.4;26.2;;;;;;;4.3;84.4;97750;;;;
2022/11/21 22:29:32;;;;;;;18.4;26.2;;;;;;;3.9;84.7;97760;;;;
2022/11/21 22:40:32;;;;;;;18.4;26.2;;;;;;;3.5;84.5;97760;;;;
2022/11/21 22:50:32;;;;;;;34;49.1;;;;;;;3;84.5;97750;;;;
2022/11/21 23:01:32;;;;;;;34;49.1;;;;;;;2.7;85.2;97740;;;;
2022/11/21 23:11:32;;;;;;;34;49.1;;;;;;;2.4;85.8;97740;;;;
2022/11/21 23:22:32;;;;;;;13.1;22.7;;;;;;;2.1;85.6;97730;;;;
2022/11/21 23:32:32;;;;;;;13.1;22.7;;;;;;;1.8;86.2;97710;;;;
2022/11/21 23:42:32;;;;;;;13.1;22.7;;;;;;;1.7;88.2;97710;;;;
2022/11/21 23:53:32;;;;;;;10.8;17.8;;;;;;;1.5;88.1;97690;;;;
